KCVO/CVO METAR and TAF weather

Enter ICAO airport designator
Station Type Date Time Source
KCVO METAR 2018/01/24 06:56 UTC NOAA

KCVO 240656Z AUTO 18016KT 10SM -RA FEW029 BKN034 OVC060 09/08 A2983 RMK AO2 RAE01B23 SLP103 P0001 T00940078


Station Type Date Time Source
KCVO Decoded METAR 2018/01/24 06:56 UTC NOAA

Corvallis, Corvallis Municipal Airport, OR, United States (KCVO) 44-30N 123-17W
Jan 24, 2018 - 01:56 AM EST / 2018.01.24 0656 UTC
Wind: from the S (180 degrees) at 18 MPH (16 KT):0
Visibility: 10 mile(s):0
Sky conditions: overcast
Weather: light rain
Precipitation last hour: 0.01 inches
Temperature: 48.9 F (9.4 C)
Dew Point: 46.0 F (7.8 C)
Relative Humidity: 89%
Pressure (altimeter): 29.83 in. Hg (1010 hPa)
ob: KCVO 240656Z AUTO 18016KT 10SM -RA FEW029 BKN034 OVC060 09/08 A2983 RMK AO2 RAE01B23 SLP103 P0001 T00940078
cycle: 7

Station Type Date Time Source
KCVO TAF UTC NOAA

Error!


Example: see airport list